Triathlon des Moines - Fourmies 2020

Epreuve sélectionnée:


Triathlon S Full - Résultats Scratch

Filtre:

Partants Général Top 5



Recherche:

N° dossard
Nom
Club
Triathlon S Full - Classement arrivée
Clt Athlète Nat. Club Temps Sexe Cat Swim T1 Bike T2 Run
21 70 MARCOUX Vincent COMPIEGNE TRIATHLON 01:03:32 M (21e) Senior (7e) 00:09:49 (58e) 00:01:07 (72e) 00:33:29 (27e) 00:00:55 (44e) 00:18:14 (8e) Partagez votre performance
50 81 VAN NIEUWENHUYSE Jesse GRAVELINES TRIATHLON 01:07:33 M (45e) Senior (13e) 00:11:50 (112e) 00:01:14 (92e) 00:34:11 (34e) 00:00:55 (40e) 00:19:26 (34e) Partagez votre performance
54 83 DI ANTONIO Tony ITU BEL 01:07:44 M (48e) Cadet (20e) 00:10:19 (72e) 00:01:07 (74e) 00:36:33 (78e) 00:01:09 (95e) 00:18:39 (19e) Partagez votre performance
65 84 LEFEBVRE Tom ITU BEL 01:09:47 M (56e) Cadet (22e) 00:10:20 (75e) 00:01:15 (93e) 00:34:57 (46e) 00:00:58 (61e) 00:22:19 (85e) Partagez votre performance
92 82 BEROUDIAUX Thomas ITU BEL 01:13:54 M (75e) Cadet (31e) 00:10:12 (71e) 00:01:05 (68e) 00:35:13 (54e) 00:00:57 (57e) 00:26:28 (157e) Partagez votre performance
107 112 DECOLNET Grégoire ITU BEL 01:17:24 M (85e) Junior (13e) 00:12:49 (143e) 00:01:17 (101e) 00:37:24 (88e) 00:01:37 (147e) 00:24:19 (122e) Partagez votre performance
133 24 ROGGE Julie ITU BEL 01:21:43 F (36e) Cadet (17e) 00:14:31 (166e) 00:01:11 (86e) 00:42:25 (145e) 00:01:15 (111e) 00:22:22 (87e) Partagez votre performance
138 100 DEREYMAEKER Benoît ITU BEL 01:22:39 M (100e) Master (24e) 00:12:45 (142e) 00:02:08 (160e) 00:40:13 (122e) 00:02:13 (182e) 00:25:21 (138e) Partagez votre performance
139 110 LESEINE Kevin ITU BEL 01:22:39 M (101e) Master (25e) 00:11:54 (114e) 00:02:41 (184e) 00:40:31 (125e) 00:02:08 (178e) 00:25:28 (140e) Partagez votre performance
140 96 VANDERSTRAETEN Pierre ITU BEL 01:22:39 M (102e) Master (26e) 00:13:25 (150e) 00:02:21 (173e) 00:39:12 (113e) 00:02:15 (184e) 00:25:28 (141e) Partagez votre performance
163 32 GILLET Aurélie ITU BEL 01:27:34 F (46e) Master (5e) 00:14:56 (169e) 00:02:39 (181e) 00:42:35 (149e) 00:01:31 (139e) 00:25:56 (150e) Partagez votre performance
167 39 HANNECART Kim ITU BEL 01:28:00 F (48e) Junior (9e) 00:12:24 (136e) 00:01:19 (104e) 00:43:15 (160e) 00:01:08 (92e) 00:29:56 (178e) Partagez votre performance
170 38 ADANT Charlotte ITU BEL 01:30:19 F (50e) Senior (13e) 00:12:54 (145e) 00:02:06 (155e) 00:43:00 (157e) 00:01:44 (160e) 00:30:37 (180e) Partagez votre performance
177 34 NOTTE Christel ITU BEL 01:32:46 F (56e) Master (10e) 00:17:41 (189e) 00:02:50 (187e) 00:44:36 (167e) 00:02:09 (180e) 00:25:32 (143e) Partagez votre performance
178 40 VOOGD Lisa ITU BEL 01:33:39 F (57e) Junior (11e) 00:12:51 (144e) 00:02:14 (170e) 00:48:00 (182e) 00:00:00 (0) 00:00:00 (0) Partagez votre performance
181 27 LEMAIRE Dominique ITU BEL 01:34:54 F (60e) Master (12e) 00:14:59 (170e) 00:02:07 (157e) 00:44:52 (171e) 00:01:46 (163e) 00:31:12 (182e) Partagez votre performance
190 35 DIERICK Laurie ITU BEL 01:40:59 F (66e) Senior (16e) 00:13:42 (156e) 00:02:47 (185e) 00:50:30 (189e) 00:02:22 (186e) 00:31:40 (185e) Partagez votre performance


Triathlon S Full - Non classé
Clt Athlète Nat. Club Temps Sexe Cat Swim T1 Bike T2 Run
DNS 112 DELCOURT Sébastien ITU BEL 00:00:00 M (0) Senior (0) 00:00:00 (0) 00:00:00 (0) 00:00:00 (0) 00:00:00 (0) 00:00:00 (0)
DNS 101 MONNE Davide ITU BEL 00:00:00 M (0) Master (0) 00:00:00 (0) 00:00:00 (0) 00:00:00 (0) 00:00:00 (0) 00:00:00 (0)


Triathlon S Full - Classement arrivée
Clt Athlète Nat. Club Temps Sexe Cat Swim T1 Bike T2 Run
3 78 TEJEDOR SENOSIAIN Enric joan COTE D OPALE TRIATHLON CALAIS SAINT OMER 00:57:22 M (3e) Senior (3e) 00:07:55 (3e) 00:00:51 (9e) 00:30:51 (2e) 00:00:51 (15e) 00:16:57 (3e) Partagez votre performance
1 77 WINOCK Hugo COTE D OPALE TRIATHLON CALAIS SAINT OMER 00:56:49 M (1e) Senior (1e) 00:07:22 (1e) 00:00:56 (33e) 00:31:20 (4e) 00:00:47 (5e) 00:16:26 (1e) Partagez votre performance
2 76 DUWAT Simon COTE D OPALE TRIATHLON CALAIS SAINT OMER 00:57:08 M (2e) Senior (2e) 00:07:56 (4e) 00:00:53 (22e) 00:30:52 (3e) 00:00:46 (4e) 00:16:43 (2e) Partagez votre performance
4 99 CARPENTIER Kilian LYS CALAIS TRIATHLON 00:58:25 M (4e) Junior (1e) 00:08:12 (12e) 00:00:44 (3e) 00:31:39 (6e) 00:00:51 (14e) 00:17:01 (4e) Partagez votre performance
5 88 LUDWICZAK Pierre CAMBRAI TRIATHLON 00:59:00 M (5e) Junior (2e) 00:07:43 (2e) 00:00:53 (20e) 00:32:09 (13e) 00:00:44 (2e) 00:17:34 (5e) Partagez votre performance
6 72 RENARD Emmanuel COTE D OPALE TRIATHLON CALAIS SAINT OMER 00:59:09 M (6e) Master (1e) 00:07:58 (5e) 00:00:53 (24e) 00:30:49 (1e) 00:00:50 (13e) 00:18:41 (21e) Partagez votre performance
7 95 GILLODTS Thomas GRAVELINES TRIATHLON 00:59:57 M (7e) Junior (3e) 00:08:00 (6e) 00:00:58 (42e) 00:31:50 (10e) 00:00:54 (28e) 00:18:17 (11e) Partagez votre performance
8 58 CARPENTIER Yanis LYS CALAIS TRIATHLON 01:00:04 M (8e) Cadet (1e) 00:08:17 (15e) 00:00:43 (1e) 00:31:41 (7e) 00:00:50 (11e) 00:18:36 (16e) Partagez votre performance
9 91 DELECROIX Gaëtan VILLENEUVE D ASCQ TRIATHLON 01:00:22 M (9e) Master (2e) 00:09:04 (36e) 00:00:52 (11e) 00:31:58 (11e) 00:00:43 (1e) 00:17:47 (6e) Partagez votre performance
10 46 MERCIRIS Nathan CAMBRAI TRIATHLON 01:00:26 M (10e) Cadet (2e) 00:08:07 (10e) 00:00:56 (35e) 00:31:41 (8e) 00:00:54 (36e) 00:18:49 (22e) Partagez votre performance
11 67 LACROIX Matisse TRIATHLON CLUB DE LIEVIN 01:00:54 M (11e) Cadet (3e) 00:08:02 (9e) 00:00:53 (25e) 00:31:59 (12e) 00:00:53 (26e) 00:19:08 (28e) Partagez votre performance
12 45 MARESCHI Mathis CAMBRAI TRIATHLON 01:01:11 M (12e) Cadet (4e) 00:08:14 (13e) 00:00:50 (6e) 00:33:07 (24e) 00:00:54 (29e) 00:18:09 (7e) Partagez votre performance
13 86 GILLODTS Guillaume TRIATHLON LITTORAL 59 01:01:11 M (13e) Master (3e) 00:08:52 (29e) 00:00:52 (18e) 00:32:09 (14e) 00:00:48 (8e) 00:18:32 (14e) Partagez votre performance
14 87 CACHEUX Alexis CAMBRAI TRIATHLON 01:01:14 M (14e) Junior (4e) 00:08:22 (17e) 00:00:52 (13e) 00:32:54 (17e) 00:00:50 (12e) 00:18:18 (12e) Partagez votre performance
15 57 BOURLET Mathieu BEAUVAIS TRIATHLON 01:01:17 M (15e) Senior (4e) 00:09:16 (39e) 00:00:54 (26e) 00:31:46 (9e) 00:00:59 (63e) 00:18:23 (13e) Partagez votre performance
16 92 SENOTIER Kevin VILLENEUVE D ASCQ TRIATHLON 01:01:22 M (16e) Senior (5e) 00:08:53 (30e) 00:00:52 (14e) 00:32:14 (15e) 00:00:47 (7e) 00:18:37 (18e) Partagez votre performance
17 82 COCHIN Léo GRAVELINES TRIATHLON 01:01:53 M (17e) Senior (6e) 00:08:00 (7e) 00:00:52 (12e) 00:33:06 (23e) 00:00:51 (16e) 00:19:06 (25e) Partagez votre performance
18 71 CHAMBELLAND Cyril COTE D OPALE TRIATHLON CALAIS SAINT OMER 01:02:09 M (18e) Master (4e) 00:09:24 (44e) 00:00:51 (8e) 00:31:38 (5e) 00:00:45 (3e) 00:19:34 (37e) Partagez votre performance
19 98 CHACHOUA Rayan GRAVELINES TRIATHLON 01:02:46 M (19e) Junior (5e) 00:08:27 (22e) 00:00:44 (2e) 00:33:00 (20e) 00:00:57 (53e) 00:19:40 (38e) Partagez votre performance
20 68 PETIT Lucas TRIATHLON CLUB DE LIEVIN 01:03:00 M (20e) Cadet (5e) 00:08:11 (11e) 00:00:46 (4e) 00:32:59 (19e) 00:00:54 (35e) 00:20:12 (47e) Partagez votre performance
22 93 HIRAULT Jules VILLENEUVE D ASCQ TRIATHLON 01:03:34 M (22e) Senior (8e) 00:09:11 (38e) 00:01:05 (65e) 00:34:12 (35e) 00:00:54 (33e) 00:18:15 (9e) Partagez votre performance
23 94 ADJAVON Eloi VILLENEUVE D ASCQ TRIATHLON 01:03:38 M (23e) Senior (9e) 00:09:20 (42e) 00:00:57 (38e) 00:34:13 (36e) 00:00:53 (27e) 00:18:16 (10e) Partagez votre performance
24 51 DEWANCKELE Matthieu BEAUVAIS TRIATHLON 01:03:50 M (24e) Master (5e) 00:09:19 (41e) 00:00:54 (27e) 00:34:14 (37e) 00:00:53 (25e) 00:18:32 (15e) Partagez votre performance
25 69 VANDER ELSTRATE Nathan TRIATHLON CLUB DE LIEVIN 01:04:08 M (25e) Cadet (6e) 00:08:01 (8e) 00:00:52 (15e) 00:33:17 (25e) 00:00:51 (18e) 00:21:09 (60e) Partagez votre performance
26 62 LANIER Leo paul SC ABBEVILLE TRIATHLON NATATION 01:04:08 M (26e) Cadet (7e) 00:08:26 (21e) 00:00:59 (46e) 00:33:50 (29e) 00:01:08 (93e) 00:19:47 (39e) Partagez votre performance
27 49 LENOIR Baptiste COTE D OPALE TRIATHLON CALAIS SAINT OMER 01:04:16 M (27e) Cadet (8e) 00:09:53 (62e) 00:01:00 (49e) 00:33:52 (30e) 00:00:57 (58e) 00:18:36 (17e) Partagez votre performance
28 57 PEUGNIEZ Charles LYS CALAIS TRIATHLON 01:04:16 M (28e) Cadet (9e) 00:08:57 (31e) 00:01:05 (66e) 00:34:42 (43e) 00:00:54 (34e) 00:18:40 (20e) Partagez votre performance
29 56 SYS Pierre BEAUVAIS TRIATHLON 01:04:23 M (29e) Senior (10e) 00:09:43 (55e) 00:01:00 (50e) 00:33:40 (28e) 00:00:56 (50e) 00:19:06 (26e) Partagez votre performance
30 56 POUTRAIN Elouan LYS CALAIS TRIATHLON 01:04:39 M (30e) Cadet (10e) 00:08:15 (14e) 00:00:52 (17e) 00:33:02 (21e) 00:01:07 (84e) 00:21:25 (66e) Partagez votre performance
31 54 LANSELLE Louis LILLE TRIATHLON 01:05:02 M (31e) Cadet (11e) 00:09:26 (46e) 00:01:08 (78e) 00:34:17 (39e) 00:00:55 (41e) 00:19:17 (32e) Partagez votre performance
32 61 DENIS Thomas REIMS TRIATHLON 01:05:02 M (32e) Cadet (12e)